ENZV/SVG METAR and TAF weather

Enter ICAO airport designator
Station Type Date Time Source
ENZV METAR 2021/07/30 05:50 UTC NOAA

ENZV 300550Z 30012KT 9000 -DZ BKN008 16/15 Q0998 BECMG SCT008 BKN012


Station Type Date Time Source
ENZV Decoded METAR 2021/07/30 05:50 UTC NOAA

Stavanger / Sola, Norway (ENZV) 58-53N 005-38E 9M
Jul 30, 2021 - 01:50 AM EDT / 2021.07.30 0550 UTC
Wind: from the WNW (300 degrees) at 14 MPH (12 KT):0
Visibility: 5 mile(s):0
Sky conditions: mostly cloudy
Weather: light drizzle
Temperature: 60 F (16 C)
Dew Point: 59 F (15 C)
Relative Humidity: 93%
Pressure (altimeter): 29.47 in. Hg (0998 hPa)
ob: ENZV 300550Z 30012KT 9000 -DZ BKN008 16/15 Q0998 BECMG SCT008 BKN012
cycle: 6

Station Type Date Time Source
ENZV TAF 2021/07/30 06:57 UTC NOAA

TAF ENZV 300500Z 3006/3106 30012KT 9999 SCT008 BKN015 PROB40
TEMPO 3006/3013 2500 DZ BR BKN004

Example: see airport list